sensor_id;sensor_type;location;lat;lon;timestamp;P1;durP1;ratioP1;P2;durP2;ratioP2
70332;SDS011;57747;43.548;-5.704;2023-03-23T00:01:53;11.50;;;4.25;;
70332;SDS011;57747;43.548;-5.704;2023-03-23T00:04:19;20.15;;;4.78;;
70332;SDS011;57747;43.548;-5.704;2023-03-23T00:06:46;11.30;;;4.75;;
70332;SDS011;57747;43.548;-5.704;2023-03-23T00:09:12;18.30;;;4.68;;
70332;SDS011;57747;43.548;-5.704;2023-03-23T00:11:42;10.23;;;4.68;;
70332;SDS011;57747;43.548;-5.704;2023-03-23T00:14:08;10.25;;;4.22;;
70332;SDS011;57747;43.548;-5.704;2023-03-23T00:16:39;24.00;;;4.55;;
70332;SDS011;57747;43.548;-5.704;2023-03-23T00:19:09;12.30;;;5.85;;
70332;SDS011;57747;43.548;-5.704;2023-03-23T00:21:38;12.87;;;5.53;;
70332;SDS011;57747;43.548;-5.704;2023-03-23T00:24:10;14.07;;;5.35;;
70332;SDS011;57747;43.548;-5.704;2023-03-23T00:26:37;14.05;;;6.03;;
70332;SDS011;57747;43.548;-5.704;2023-03-23T00:29:07;20.55;;;5.82;;
70332;SDS011;57747;43.548;-5.704;2023-03-23T00:31:35;15.38;;;6.35;;
70332;SDS011;57747;43.548;-5.704;2023-03-23T00:34:01;18.15;;;5.53;;
70332;SDS011;57747;43.548;-5.704;2023-03-23T00:36:29;14.10;;;6.00;;
70332;SDS011;57747;43.548;-5.704;2023-03-23T00:38:54;14.80;;;6.20;;
70332;SDS011;57747;43.548;-5.704;2023-03-23T00:41:25;17.27;;;6.65;;
70332;SDS011;57747;43.548;-5.704;2023-03-23T00:43:52;16.58;;;7.00;;
70332;SDS011;57747;43.548;-5.704;2023-03-23T00:46:18;16.05;;;6.90;;
70332;SDS011;57747;43.548;-5.704;2023-03-23T00:48:45;18.00;;;6.35;;
70332;SDS011;57747;43.548;-5.704;2023-03-23T00:51:11;28.10;;;7.25;;
70332;SDS011;57747;43.548;-5.704;2023-03-23T00:53:38;14.90;;;6.05;;
70332;SDS011;57747;43.548;-5.704;2023-03-23T00:56:03;16.65;;;6.18;;
70332;SDS011;57747;43.548;-5.704;2023-03-23T00:58:29;15.85;;;6.40;;
70332;SDS011;57747;43.548;-5.704;2023-03-23T01:00:54;20.98;;;6.03;;
70332;SDS011;57747;43.548;-5.704;2023-03-23T01:03:19;9.68;;;5.55;;
70332;SDS011;57747;43.548;-5.704;2023-03-23T01:05:45;15.23;;;6.20;;
70332;SDS011;57747;43.548;-5.704;2023-03-23T01:08:12;13.75;;;7.05;;
70332;SDS011;57747;43.548;-5.704;2023-03-23T01:10:38;16.13;;;6.32;;
70332;SDS011;57747;43.548;-5.704;2023-03-23T01:13:04;21.75;;;6.70;;
70332;SDS011;57747;43.548;-5.704;2023-03-23T01:15:30;13.40;;;6.15;;
70332;SDS011;57747;43.548;-5.704;2023-03-23T01:17:55;15.00;;;6.05;;
70332;SDS011;57747;43.548;-5.704;2023-03-23T01:20:21;23.77;;;8.07;;
70332;SDS011;57747;43.548;-5.704;2023-03-23T01:22:46;27.92;;;9.07;;
70332;SDS011;57747;43.548;-5.704;2023-03-23T01:25:12;18.25;;;8.45;;
70332;SDS011;57747;43.548;-5.704;2023-03-23T01:27:38;21.95;;;7.60;;
70332;SDS011;57747;43.548;-5.704;2023-03-23T01:30:04;27.25;;;8.02;;
70332;SDS011;57747;43.548;-5.704;2023-03-23T01:32:30;16.50;;;6.80;;
70332;SDS011;57747;43.548;-5.704;2023-03-23T01:34:56;15.85;;;6.50;;
70332;SDS011;57747;43.548;-5.704;2023-03-23T01:37:21;16.35;;;7.00;;
70332;SDS011;57747;43.548;-5.704;2023-03-23T01:39:52;19.00;;;7.63;;
70332;SDS011;57747;43.548;-5.704;2023-03-23T01:42:18;15.25;;;6.57;;
70332;SDS011;57747;43.548;-5.704;2023-03-23T01:47:09;19.80;;;7.75;;
70332;SDS011;57747;43.548;-5.704;2023-03-23T01:49:39;25.52;;;8.13;;
70332;SDS011;57747;43.548;-5.704;2023-03-23T01:52:13;18.02;;;6.47;;
70332;SDS011;57747;43.548;-5.704;2023-03-23T01:54:42;11.50;;;5.22;;
70332;SDS011;57747;43.548;-5.704;2023-03-23T01:57:11;18.58;;;6.07;;
70332;SDS011;57747;43.548;-5.704;2023-03-23T01:59:38;13.75;;;5.90;;
70332;SDS011;57747;43.548;-5.704;2023-03-23T02:02:05;15.80;;;6.45;;
70332;SDS011;57747;43.548;-5.704;2023-03-23T02:04:30;23.80;;;7.07;;
70332;SDS011;57747;43.548;-5.704;2023-03-23T02:06:56;16.58;;;5.38;;
70332;SDS011;57747;43.548;-5.704;2023-03-23T02:09:24;14.70;;;5.88;;
70332;SDS011;57747;43.548;-5.704;2023-03-23T02:11:50;15.80;;;5.22;;
70332;SDS011;57747;43.548;-5.704;2023-03-23T02:14:15;15.27;;;5.30;;
70332;SDS011;57747;43.548;-5.704;2023-03-23T02:16:45;13.02;;;5.50;;
70332;SDS011;57747;43.548;-5.704;2023-03-23T02:19:35;19.67;;;5.47;;
70332;SDS011;57747;43.548;-5.704;2023-03-23T02:35:38;20.70;;;5.88;;
70332;SDS011;57747;43.548;-5.704;2023-03-23T02:38:08;24.48;;;5.70;;
70332;SDS011;57747;43.548;-5.704;2023-03-23T02:40:39;27.48;;;7.32;;
70332;SDS011;57747;43.548;-5.704;2023-03-23T02:43:09;23.90;;;6.68;;
70332;SDS011;57747;43.548;-5.704;2023-03-23T02:45:36;43.90;;;7.15;;
70332;SDS011;57747;43.548;-5.704;2023-03-23T02:48:03;29.45;;;6.60;;
70332;SDS011;57747;43.548;-5.704;2023-03-23T02:53:26;29.27;;;7.13;;
70332;SDS011;57747;43.548;-5.704;2023-03-23T02:55:53;31.90;;;8.50;;
70332;SDS011;57747;43.548;-5.704;2023-03-23T02:58:21;28.42;;;7.55;;
70332;SDS011;57747;43.548;-5.704;2023-03-23T03:00:48;29.30;;;7.85;;
70332;SDS011;57747;43.548;-5.704;2023-03-23T03:03:15;24.88;;;6.82;;
70332;SDS011;57747;43.548;-5.704;2023-03-23T03:05:45;29.67;;;8.10;;
70332;SDS011;57747;43.548;-5.704;2023-03-23T03:11:10;39.42;;;8.95;;
70332;SDS011;57747;43.548;-5.704;2023-03-23T03:13:50;39.10;;;8.90;;
70332;SDS011;57747;43.548;-5.704;2023-03-23T03:16:23;43.78;;;8.63;;
70332;SDS011;57747;43.548;-5.704;2023-03-23T03:18:56;31.30;;;9.00;;
70332;SDS011;57747;43.548;-5.704;2023-03-23T03:21:23;31.27;;;8.82;;
70332;SDS011;57747;43.548;-5.704;2023-03-23T03:23:50;36.42;;;8.00;;
70332;SDS011;57747;43.548;-5.704;2023-03-23T03:26:18;22.08;;;7.72;;
70332;SDS011;57747;43.548;-5.704;2023-03-23T03:28:46;28.50;;;8.50;;
70332;SDS011;57747;43.548;-5.704;2023-03-23T03:31:17;44.15;;;10.30;;
70332;SDS011;57747;43.548;-5.704;2023-03-23T03:33:43;48.63;;;9.07;;
70332;SDS011;57747;43.548;-5.704;2023-03-23T03:36:13;64.82;;;10.70;;
70332;SDS011;57747;43.548;-5.704;2023-03-23T03:38:46;40.20;;;10.48;;
70332;SDS011;57747;43.548;-5.704;2023-03-23T03:41:13;35.35;;;9.07;;
70332;SDS011;57747;43.548;-5.704;2023-03-23T03:43:41;43.45;;;10.30;;
70332;SDS011;57747;43.548;-5.704;2023-03-23T03:46:07;37.50;;;10.23;;
70332;SDS011;57747;43.548;-5.704;2023-03-23T03:48:32;33.30;;;9.40;;
70332;SDS011;57747;43.548;-5.704;2023-03-23T03:50:58;40.88;;;9.00;;
70332;SDS011;57747;43.548;-5.704;2023-03-23T03:53:26;38.67;;;8.63;;
70332;SDS011;57747;43.548;-5.704;2023-03-23T03:55:53;32.75;;;9.05;;
70332;SDS011;57747;43.548;-5.704;2023-03-23T03:58:22;40.95;;;9.80;;
70332;SDS011;57747;43.548;-5.704;2023-03-23T04:00:47;35.10;;;9.32;;
70332;SDS011;57747;43.548;-5.704;2023-03-23T04:03:13;52.05;;;9.00;;
70332;SDS011;57747;43.548;-5.704;2023-03-23T04:05:39;27.65;;;8.77;;
70332;SDS011;57747;43.548;-5.704;2023-03-23T04:08:06;31.20;;;8.80;;
70332;SDS011;57747;43.548;-5.704;2023-03-23T04:10:32;22.67;;;7.22;;
70332;SDS011;57747;43.548;-5.704;2023-03-23T04:13:00;25.88;;;9.77;;
70332;SDS011;57747;43.548;-5.704;2023-03-23T04:15:26;28.88;;;8.88;;
70332;SDS011;57747;43.548;-5.704;2023-03-23T04:17:51;39.08;;;8.70;;
70332;SDS011;57747;43.548;-5.704;2023-03-23T04:20:17;32.90;;;8.70;;
70332;SDS011;57747;43.548;-5.704;2023-03-23T04:22:43;26.65;;;8.02;;
70332;SDS011;57747;43.548;-5.704;2023-03-23T04:25:10;23.98;;;8.20;;
70332;SDS011;57747;43.548;-5.704;2023-03-23T04:27:39;19.50;;;8.38;;
70332;SDS011;57747;43.548;-5.704;2023-03-23T04:30:10;31.73;;;9.32;;
70332;SDS011;57747;43.548;-5.704;2023-03-23T04:32:38;33.30;;;9.40;;
70332;SDS011;57747;43.548;-5.704;2023-03-23T04:35:06;48.40;;;9.90;;
70332;SDS011;57747;43.548;-5.704;2023-03-23T04:37:36;23.08;;;8.07;;
70332;SDS011;57747;43.548;-5.704;2023-03-23T04:40:01;35.03;;;8.40;;
70332;SDS011;57747;43.548;-5.704;2023-03-23T04:42:38;33.88;;;9.25;;
70332;SDS011;57747;43.548;-5.704;2023-03-23T04:45:04;33.58;;;9.48;;
70332;SDS011;57747;43.548;-5.704;2023-03-23T04:47:34;28.75;;;9.05;;
70332;SDS011;57747;43.548;-5.704;2023-03-23T04:52:34;38.17;;;9.20;;
70332;SDS011;57747;43.548;-5.704;2023-03-23T04:55:02;31.27;;;10.25;;
70332;SDS011;57747;43.548;-5.704;2023-03-23T04:57:27;29.92;;;8.75;;
70332;SDS011;57747;43.548;-5.704;2023-03-23T04:59:53;29.92;;;7.75;;
70332;SDS011;57747;43.548;-5.704;2023-03-23T05:02:18;33.72;;;8.77;;
70332;SDS011;57747;43.548;-5.704;2023-03-23T05:04:44;26.88;;;8.85;;
70332;SDS011;57747;43.548;-5.704;2023-03-23T05:07:10;27.90;;;8.45;;
70332;SDS011;57747;43.548;-5.704;2023-03-23T05:09:36;33.88;;;7.35;;
70332;SDS011;57747;43.548;-5.704;2023-03-23T05:12:05;18.67;;;7.75;;
70332;SDS011;57747;43.548;-5.704;2023-03-23T05:14:31;29.85;;;8.70;;
70332;SDS011;57747;43.548;-5.704;2023-03-23T05:16:56;26.88;;;7.95;;
70332;SDS011;57747;43.548;-5.704;2023-03-23T05:19:21;21.52;;;7.30;;
70332;SDS011;57747;43.548;-5.704;2023-03-23T05:21:47;30.20;;;8.63;;
70332;SDS011;57747;43.548;-5.704;2023-03-23T05:24:12;23.60;;;7.53;;
70332;SDS011;57747;43.548;-5.704;2023-03-23T05:26:37;34.30;;;8.68;;
70332;SDS011;57747;43.548;-5.704;2023-03-23T05:29:03;22.13;;;7.68;;
70332;SDS011;57747;43.548;-5.704;2023-03-23T05:31:31;27.88;;;8.18;;
70332;SDS011;57747;43.548;-5.704;2023-03-23T05:33:57;27.65;;;7.57;;
70332;SDS011;57747;43.548;-5.704;2023-03-23T05:36:22;29.55;;;8.10;;
70332;SDS011;57747;43.548;-5.704;2023-03-23T05:38:48;19.63;;;7.22;;
70332;SDS011;57747;43.548;-5.704;2023-03-23T05:41:15;26.92;;;7.03;;
70332;SDS011;57747;43.548;-5.704;2023-03-23T05:43:41;21.85;;;7.22;;
70332;SDS011;57747;43.548;-5.704;2023-03-23T05:46:06;28.45;;;7.53;;
70332;SDS011;57747;43.548;-5.704;2023-03-23T05:48:33;26.33;;;7.85;;
70332;SDS011;57747;43.548;-5.704;2023-03-23T05:50:58;35.00;;;7.97;;
70332;SDS011;57747;43.548;-5.704;2023-03-23T05:53:24;24.70;;;6.50;;
70332;SDS011;57747;43.548;-5.704;2023-03-23T05:55:51;19.42;;;7.50;;
70332;SDS011;57747;43.548;-5.704;2023-03-23T05:58:17;16.20;;;7.88;;
70332;SDS011;57747;43.548;-5.704;2023-03-23T06:00:43;28.55;;;7.90;;
70332;SDS011;57747;43.548;-5.704;2023-03-23T06:03:08;19.80;;;6.82;;
70332;SDS011;57747;43.548;-5.704;2023-03-23T06:05:34;21.70;;;6.85;;
70332;SDS011;57747;43.548;-5.704;2023-03-23T06:08:02;25.00;;;7.43;;
70332;SDS011;57747;43.548;-5.704;2023-03-23T06:10:28;26.20;;;8.30;;
70332;SDS011;57747;43.548;-5.704;2023-03-23T06:12:55;21.13;;;6.65;;
70332;SDS011;57747;43.548;-5.704;2023-03-23T06:15:21;25.17;;;7.43;;
70332;SDS011;57747;43.548;-5.704;2023-03-23T06:17:46;27.60;;;7.75;;
70332;SDS011;57747;43.548;-5.704;2023-03-23T06:20:12;18.42;;;7.90;;
70332;SDS011;57747;43.548;-5.704;2023-03-23T06:22:37;28.15;;;7.30;;
70332;SDS011;57747;43.548;-5.704;2023-03-23T06:25:04;26.80;;;7.50;;
70332;SDS011;57747;43.548;-5.704;2023-03-23T06:27:29;19.98;;;6.00;;
70332;SDS011;57747;43.548;-5.704;2023-03-23T06:29:55;17.40;;;7.40;;
70332;SDS011;57747;43.548;-5.704;2023-03-23T06:32:21;21.33;;;7.68;;
70332;SDS011;57747;43.548;-5.704;2023-03-23T06:34:47;23.98;;;6.93;;
70332;SDS011;57747;43.548;-5.704;2023-03-23T06:37:13;28.85;;;7.57;;
70332;SDS011;57747;43.548;-5.704;2023-03-23T06:39:38;20.77;;;6.75;;
70332;SDS011;57747;43.548;-5.704;2023-03-23T06:42:04;22.45;;;7.00;;
70332;SDS011;57747;43.548;-5.704;2023-03-23T06:44:30;22.70;;;7.50;;
70332;SDS011;57747;43.548;-5.704;2023-03-23T06:46:55;26.83;;;8.00;;
70332;SDS011;57747;43.548;-5.704;2023-03-23T06:49:23;22.33;;;7.13;;
70332;SDS011;57747;43.548;-5.704;2023-03-23T06:51:49;21.08;;;6.93;;
70332;SDS011;57747;43.548;-5.704;2023-03-23T06:54:15;12.70;;;6.35;;
70332;SDS011;57747;43.548;-5.704;2023-03-23T06:56:40;14.60;;;6.00;;
70332;SDS011;57747;43.548;-5.704;2023-03-23T06:59:06;16.30;;;5.32;;
70332;SDS011;57747;43.548;-5.704;2023-03-23T07:01:32;19.88;;;5.32;;
70332;SDS011;57747;43.548;-5.704;2023-03-23T07:03:57;13.82;;;5.32;;
70332;SDS011;57747;43.548;-5.704;2023-03-23T07:06:23;18.35;;;5.30;;
70332;SDS011;57747;43.548;-5.704;2023-03-23T07:08:49;19.35;;;6.03;;
70332;SDS011;57747;43.548;-5.704;2023-03-23T07:11:15;18.45;;;5.90;;
70332;SDS011;57747;43.548;-5.704;2023-03-23T07:13:41;19.92;;;6.82;;
70332;SDS011;57747;43.548;-5.704;2023-03-23T07:16:07;29.83;;;6.93;;
70332;SDS011;57747;43.548;-5.704;2023-03-23T07:18:33;12.32;;;6.32;;
70332;SDS011;57747;43.548;-5.704;2023-03-23T07:20:58;18.00;;;6.32;;
70332;SDS011;57747;43.548;-5.704;2023-03-23T07:23:25;22.05;;;7.07;;
70332;SDS011;57747;43.548;-5.704;2023-03-23T07:25:50;12.95;;;5.30;;
70332;SDS011;57747;43.548;-5.704;2023-03-23T07:28:16;9.95;;;5.30;;
70332;SDS011;57747;43.548;-5.704;2023-03-23T07:30:41;19.00;;;6.63;;
70332;SDS011;57747;43.548;-5.704;2023-03-23T07:33:07;18.75;;;6.35;;
70332;SDS011;57747;43.548;-5.704;2023-03-23T07:35:33;14.82;;;5.90;;
70332;SDS011;57747;43.548;-5.704;2023-03-23T07:37:59;16.83;;;6.10;;
70332;SDS011;57747;43.548;-5.704;2023-03-23T07:40:25;19.90;;;6.03;;
70332;SDS011;57747;43.548;-5.704;2023-03-23T07:42:53;16.63;;;5.97;;
70332;SDS011;57747;43.548;-5.704;2023-03-23T07:45:18;18.10;;;5.82;;
70332;SDS011;57747;43.548;-5.704;2023-03-23T07:47:44;20.17;;;5.72;;
70332;SDS011;57747;43.548;-5.704;2023-03-23T07:50:10;18.90;;;5.90;;
70332;SDS011;57747;43.548;-5.704;2023-03-23T07:52:39;19.73;;;5.97;;
70332;SDS011;57747;43.548;-5.704;2023-03-23T07:55:06;9.32;;;4.75;;
70332;SDS011;57747;43.548;-5.704;2023-03-23T07:57:34;17.83;;;5.88;;
70332;SDS011;57747;43.548;-5.704;2023-03-23T08:00:03;24.17;;;5.47;;
70332;SDS011;57747;43.548;-5.704;2023-03-23T08:02:34;20.63;;;6.05;;
70332;SDS011;57747;43.548;-5.704;2023-03-23T08:05:00;13.43;;;5.57;;
70332;SDS011;57747;43.548;-5.704;2023-03-23T08:07:26;13.27;;;5.60;;
70332;SDS011;57747;43.548;-5.704;2023-03-23T08:09:51;11.50;;;5.30;;
70332;SDS011;57747;43.548;-5.704;2023-03-23T08:12:17;10.32;;;4.65;;
70332;SDS011;57747;43.548;-5.704;2023-03-23T08:14:42;11.95;;;4.30;;
70332;SDS011;57747;43.548;-5.704;2023-03-23T08:17:08;10.13;;;4.90;;
70332;SDS011;57747;43.548;-5.704;2023-03-23T08:19:36;10.57;;;4.95;;
70332;SDS011;57747;43.548;-5.704;2023-03-23T08:22:04;26.92;;;7.10;;
70332;SDS011;57747;43.548;-5.704;2023-03-23T08:24:30;18.00;;;6.90;;
70332;SDS011;57747;43.548;-5.704;2023-03-23T08:26:56;30.13;;;8.93;;
70332;SDS011;57747;43.548;-5.704;2023-03-23T08:29:23;37.42;;;7.60;;
70332;SDS011;57747;43.548;-5.704;2023-03-23T08:31:49;44.42;;;7.78;;
70332;SDS011;57747;43.548;-5.704;2023-03-23T08:34:15;22.13;;;7.10;;
70332;SDS011;57747;43.548;-5.704;2023-03-23T08:36:41;24.98;;;6.18;;
70332;SDS011;57747;43.548;-5.704;2023-03-23T08:39:09;24.80;;;6.68;;
70332;SDS011;57747;43.548;-5.704;2023-03-23T08:41:34;28.60;;;6.88;;
70332;SDS011;57747;43.548;-5.704;2023-03-23T08:44:00;21.08;;;6.82;;
70332;SDS011;57747;43.548;-5.704;2023-03-23T08:46:29;26.98;;;6.80;;
70332;SDS011;57747;43.548;-5.704;2023-03-23T08:48:54;20.30;;;7.70;;
70332;SDS011;57747;43.548;-5.704;2023-03-23T08:51:24;20.00;;;6.95;;
70332;SDS011;57747;43.548;-5.704;2023-03-23T08:53:51;20.40;;;6.85;;
70332;SDS011;57747;43.548;-5.704;2023-03-23T08:56:17;17.70;;;6.40;;
70332;SDS011;57747;43.548;-5.704;2023-03-23T08:58:43;15.65;;;5.28;;
70332;SDS011;57747;43.548;-5.704;2023-03-23T09:01:08;11.90;;;4.80;;
70332;SDS011;57747;43.548;-5.704;2023-03-23T09:03:35;13.38;;;4.82;;
70332;SDS011;57747;43.548;-5.704;2023-03-23T09:06:01;10.95;;;3.60;;
70332;SDS011;57747;43.548;-5.704;2023-03-23T09:08:28;12.20;;;3.80;;
70332;SDS011;57747;43.548;-5.704;2023-03-23T09:13:25;6.20;;;3.57;;
70332;SDS011;57747;43.548;-5.704;2023-03-23T09:15:51;8.13;;;3.72;;
70332;SDS011;57747;43.548;-5.704;2023-03-23T09:18:17;7.35;;;3.22;;
70332;SDS011;57747;43.548;-5.704;2023-03-23T09:20:43;17.35;;;3.78;;
70332;SDS011;57747;43.548;-5.704;2023-03-23T09:23:09;7.35;;;3.60;;
70332;SDS011;57747;43.548;-5.704;2023-03-23T09:25:34;7.97;;;3.47;;
70332;SDS011;57747;43.548;-5.704;2023-03-23T09:27:59;7.95;;;3.63;;
70332;SDS011;57747;43.548;-5.704;2023-03-23T09:30:29;13.45;;;3.50;;
70332;SDS011;57747;43.548;-5.704;2023-03-23T09:32:55;9.80;;;3.97;;
70332;SDS011;57747;43.548;-5.704;2023-03-23T09:35:21;9.02;;;3.42;;
70332;SDS011;57747;43.548;-5.704;2023-03-23T09:37:55;10.57;;;4.13;;
70332;SDS011;57747;43.548;-5.704;2023-03-23T09:40:21;13.95;;;3.95;;
70332;SDS011;57747;43.548;-5.704;2023-03-23T09:53:51;11.05;;;3.55;;
70332;SDS011;57747;43.548;-5.704;2023-03-23T09:56:19;9.93;;;3.50;;
70332;SDS011;57747;43.548;-5.704;2023-03-23T09:58:53;8.73;;;3.40;;
70332;SDS011;57747;43.548;-5.704;2023-03-23T10:01:26;5.53;;;3.10;;
70332;SDS011;57747;43.548;-5.704;2023-03-23T10:03:52;12.40;;;3.40;;
70332;SDS011;57747;43.548;-5.704;2023-03-23T10:06:23;8.23;;;4.65;;
70332;SDS011;57747;43.548;-5.704;2023-03-23T10:08:49;11.10;;;3.63;;
70332;SDS011;57747;43.548;-5.704;2023-03-23T10:13:52;10.35;;;4.15;;
70332;SDS011;57747;43.548;-5.704;2023-03-23T10:16:36;14.38;;;4.43;;
70332;SDS011;57747;43.548;-5.704;2023-03-23T10:21:34;18.77;;;5.57;;
70332;SDS011;57747;43.548;-5.704;2023-03-23T10:24:02;19.85;;;5.22;;
70332;SDS011;57747;43.548;-5.704;2023-03-23T10:29:03;16.58;;;4.20;;
70332;SDS011;57747;43.548;-5.704;2023-03-23T10:31:37;19.77;;;4.25;;
70332;SDS011;57747;43.548;-5.704;2023-03-23T10:34:07;6.47;;;3.60;;
70332;SDS011;57747;43.548;-5.704;2023-03-23T10:36:36;7.50;;;3.45;;
70332;SDS011;57747;43.548;-5.704;2023-03-23T10:39:16;9.77;;;3.47;;
70332;SDS011;57747;43.548;-5.704;2023-03-23T12:47:42;7.35;;;2.20;;
70332;SDS011;57747;43.548;-5.704;2023-03-23T13:08:30;10.70;;;3.10;;
70332;SDS011;57747;43.548;-5.704;2023-03-23T13:11:01;10.40;;;2.97;;
70332;SDS011;57747;43.548;-5.704;2023-03-23T13:13:47;11.70;;;3.30;;
70332;SDS011;57747;43.548;-5.704;2023-03-23T13:21:31;19.27;;;4.00;;
70332;SDS011;57747;43.548;-5.704;2023-03-23T13:24:03;27.65;;;5.45;;
70332;SDS011;57747;43.548;-5.704;2023-03-23T13:26:30;16.00;;;4.30;;
70332;SDS011;57747;43.548;-5.704;2023-03-23T13:28:58;10.18;;;3.88;;
70332;SDS011;57747;43.548;-5.704;2023-03-23T13:31:34;17.45;;;4.05;;
70332;SDS011;57747;43.548;-5.704;2023-03-23T13:34:06;25.33;;;5.65;;
70332;SDS011;57747;43.548;-5.704;2023-03-23T13:36:37;10.98;;;3.22;;
70332;SDS011;57747;43.548;-5.704;2023-03-23T13:39:04;13.10;;;3.83;;
70332;SDS011;57747;43.548;-5.704;2023-03-23T13:41:32;15.30;;;4.90;;
70332;SDS011;57747;43.548;-5.704;2023-03-23T13:44:05;26.52;;;5.63;;
70332;SDS011;57747;43.548;-5.704;2023-03-23T13:49:27;16.75;;;4.88;;
70332;SDS011;57747;43.548;-5.704;2023-03-23T13:51:58;13.18;;;4.78;;
70332;SDS011;57747;43.548;-5.704;2023-03-23T13:54:32;12.98;;;4.90;;
70332;SDS011;57747;43.548;-5.704;2023-03-23T13:57:19;22.00;;;5.32;;
70332;SDS011;57747;43.548;-5.704;2023-03-23T14:00:24;21.23;;;4.45;;
70332;SDS011;57747;43.548;-5.704;2023-03-23T14:02:39;17.83;;;4.10;;
70332;SDS011;57747;43.548;-5.704;2023-03-23T14:05:19;12.75;;;3.40;;
70332;SDS011;57747;43.548;-5.704;2023-03-23T14:08:10;16.48;;;3.97;;
70332;SDS011;57747;43.548;-5.704;2023-03-23T14:10:44;9.05;;;3.38;;
70332;SDS011;57747;43.548;-5.704;2023-03-23T14:19:00;16.83;;;4.25;;
70332;SDS011;57747;43.548;-5.704;2023-03-23T14:24:08;19.13;;;4.50;;
70332;SDS011;57747;43.548;-5.704;2023-03-23T14:26:41;9.70;;;3.70;;
70332;SDS011;57747;43.548;-5.704;2023-03-23T14:29:41;10.13;;;3.92;;
70332;SDS011;57747;43.548;-5.704;2023-03-23T14:35:17;17.35;;;3.92;;
70332;SDS011;57747;43.548;-5.704;2023-03-23T14:38:04;12.75;;;4.35;;
70332;SDS011;57747;43.548;-5.704;2023-03-23T14:40:37;18.13;;;4.43;;
70332;SDS011;57747;43.548;-5.704;2023-03-23T14:43:05;19.85;;;4.88;;
70332;SDS011;57747;43.548;-5.704;2023-03-23T14:45:43;23.10;;;4.20;;
70332;SDS011;57747;43.548;-5.704;2023-03-23T14:48:31;20.20;;;4.55;;
70332;SDS011;57747;43.548;-5.704;2023-03-23T14:51:00;16.92;;;4.30;;
70332;SDS011;57747;43.548;-5.704;2023-03-23T14:56:00;17.00;;;4.28;;
70332;SDS011;57747;43.548;-5.704;2023-03-23T14:58:25;16.98;;;4.50;;
70332;SDS011;57747;43.548;-5.704;2023-03-23T15:03:19;25.52;;;4.55;;
70332;SDS011;57747;43.548;-5.704;2023-03-23T15:05:47;13.95;;;4.45;;
70332;SDS011;57747;43.548;-5.704;2023-03-23T15:08:15;26.73;;;5.28;;
70332;SDS011;57747;43.548;-5.704;2023-03-23T15:10:56;19.55;;;5.13;;
70332;SDS011;57747;43.548;-5.704;2023-03-23T15:13:24;16.65;;;4.63;;
70332;SDS011;57747;43.548;-5.704;2023-03-23T15:15:50;16.80;;;4.47;;
70332;SDS011;57747;43.548;-5.704;2023-03-23T15:18:37;14.07;;;4.85;;
70332;SDS011;57747;43.548;-5.704;2023-03-23T15:21:08;15.77;;;4.90;;
70332;SDS011;57747;43.548;-5.704;2023-03-23T15:23:34;25.25;;;5.45;;
70332;SDS011;57747;43.548;-5.704;2023-03-23T15:26:14;31.63;;;5.47;;
70332;SDS011;57747;43.548;-5.704;2023-03-23T15:28:43;26.80;;;4.82;;
70332;SDS011;57747;43.548;-5.704;2023-03-23T15:31:08;17.10;;;4.13;;
70332;SDS011;57747;43.548;-5.704;2023-03-23T15:33:34;18.27;;;5.35;;
70332;SDS011;57747;43.548;-5.704;2023-03-23T15:36:04;20.17;;;4.82;;
70332;SDS011;57747;43.548;-5.704;2023-03-23T15:38:31;15.65;;;4.40;;
70332;SDS011;57747;43.548;-5.704;2023-03-23T15:40:57;22.98;;;4.55;;
70332;SDS011;57747;43.548;-5.704;2023-03-23T15:43:27;15.63;;;4.38;;
70332;SDS011;57747;43.548;-5.704;2023-03-23T15:48:28;19.98;;;5.10;;
70332;SDS011;57747;43.548;-5.704;2023-03-23T15:50:54;12.73;;;4.43;;
70332;SDS011;57747;43.548;-5.704;2023-03-23T15:55:48;20.60;;;3.95;;
70332;SDS011;57747;43.548;-5.704;2023-03-23T15:58:13;15.77;;;4.13;;
70332;SDS011;57747;43.548;-5.704;2023-03-23T16:00:39;15.52;;;4.68;;
70332;SDS011;57747;43.548;-5.704;2023-03-23T16:03:06;16.92;;;4.03;;
70332;SDS011;57747;43.548;-5.704;2023-03-23T16:05:32;24.95;;;7.70;;
70332;SDS011;57747;43.548;-5.704;2023-03-23T16:07:58;17.50;;;6.25;;
70332;SDS011;57747;43.548;-5.704;2023-03-23T16:10:24;19.20;;;5.78;;
70332;SDS011;57747;43.548;-5.704;2023-03-23T16:12:50;15.27;;;5.00;;
70332;SDS011;57747;43.548;-5.704;2023-03-23T16:15:16;17.35;;;4.63;;
70332;SDS011;57747;43.548;-5.704;2023-03-23T16:17:42;12.07;;;4.35;;
70332;SDS011;57747;43.548;-5.704;2023-03-23T16:20:11;14.68;;;4.70;;
70332;SDS011;57747;43.548;-5.704;2023-03-23T16:22:40;24.13;;;5.32;;
70332;SDS011;57747;43.548;-5.704;2023-03-23T16:25:06;23.17;;;5.63;;
70332;SDS011;57747;43.548;-5.704;2023-03-23T16:27:31;14.43;;;4.95;;
70332;SDS011;57747;43.548;-5.704;2023-03-23T16:30:00;19.58;;;5.60;;
70332;SDS011;57747;43.548;-5.704;2023-03-23T16:32:29;15.77;;;5.38;;
70332;SDS011;57747;43.548;-5.704;2023-03-23T16:34:55;12.70;;;5.38;;
70332;SDS011;57747;43.548;-5.704;2023-03-23T16:37:20;22.45;;;5.43;;
70332;SDS011;57747;43.548;-5.704;2023-03-23T16:39:45;17.92;;;5.35;;
70332;SDS011;57747;43.548;-5.704;2023-03-23T16:42:11;13.35;;;5.30;;
70332;SDS011;57747;43.548;-5.704;2023-03-23T16:44:36;24.60;;;6.68;;
70332;SDS011;57747;43.548;-5.704;2023-03-23T16:50:10;19.02;;;6.90;;
70332;SDS011;57747;43.548;-5.704;2023-03-23T16:52:37;24.45;;;6.40;;
70332;SDS011;57747;43.548;-5.704;2023-03-23T16:55:04;21.33;;;6.13;;
70332;SDS011;57747;43.548;-5.704;2023-03-23T16:57:31;27.13;;;6.70;;
70332;SDS011;57747;43.548;-5.704;2023-03-23T16:59:56;20.52;;;6.57;;
70332;SDS011;57747;43.548;-5.704;2023-03-23T17:02:23;23.08;;;7.60;;
70332;SDS011;57747;43.548;-5.704;2023-03-23T17:04:48;24.45;;;6.95;;
70332;SDS011;57747;43.548;-5.704;2023-03-23T17:07:14;21.40;;;6.72;;
70332;SDS011;57747;43.548;-5.704;2023-03-23T17:09:40;25.55;;;6.63;;
70332;SDS011;57747;43.548;-5.704;2023-03-23T17:12:06;21.50;;;7.07;;
70332;SDS011;57747;43.548;-5.704;2023-03-23T17:14:31;22.25;;;8.20;;
70332;SDS011;57747;43.548;-5.704;2023-03-23T17:16:57;25.02;;;7.47;;
70332;SDS011;57747;43.548;-5.704;2023-03-23T17:19:22;24.05;;;7.72;;
70332;SDS011;57747;43.548;-5.704;2023-03-23T17:21:50;24.88;;;7.28;;
70332;SDS011;57747;43.548;-5.704;2023-03-23T17:24:16;24.65;;;7.45;;
70332;SDS011;57747;43.548;-5.704;2023-03-23T17:26:41;23.30;;;7.38;;
70332;SDS011;57747;43.548;-5.704;2023-03-23T17:29:07;21.88;;;7.53;;
70332;SDS011;57747;43.548;-5.704;2023-03-23T17:31:32;20.55;;;7.70;;
70332;SDS011;57747;43.548;-5.704;2023-03-23T17:33:57;18.95;;;8.15;;
70332;SDS011;57747;43.548;-5.704;2023-03-23T17:39:28;25.00;;;8.13;;
70332;SDS011;57747;43.548;-5.704;2023-03-23T17:41:54;20.95;;;8.38;;
70332;SDS011;57747;43.548;-5.704;2023-03-23T17:44:19;23.02;;;8.85;;
70332;SDS011;57747;43.548;-5.704;2023-03-23T17:46:45;23.00;;;7.60;;
70332;SDS011;57747;43.548;-5.704;2023-03-23T17:49:10;18.35;;;7.93;;
70332;SDS011;57747;43.548;-5.704;2023-03-23T17:51:36;21.00;;;8.70;;
70332;SDS011;57747;43.548;-5.704;2023-03-23T17:54:01;18.13;;;7.30;;
70332;SDS011;57747;43.548;-5.704;2023-03-23T17:56:26;26.23;;;8.48;;
70332;SDS011;57747;43.548;-5.704;2023-03-23T17:58:52;30.05;;;9.13;;
70332;SDS011;57747;43.548;-5.704;2023-03-23T18:01:18;48.92;;;11.88;;
70332;SDS011;57747;43.548;-5.704;2023-03-23T18:03:43;47.80;;;12.93;;
70332;SDS011;57747;43.548;-5.704;2023-03-23T18:06:08;39.22;;;12.00;;
70332;SDS011;57747;43.548;-5.704;2023-03-23T18:08:34;53.97;;;11.82;;
70332;SDS011;57747;43.548;-5.704;2023-03-23T18:11:00;48.05;;;12.75;;